createdAt,value
2022-12-03T00:01:08.955Z,0.84
2022-12-03T00:04:30.936Z,0.83
2022-12-03T00:07:52.682Z,0.84
2022-12-03T00:11:15.751Z,0.83
2022-12-03T00:14:42.844Z,0.84
2022-12-03T00:18:06.119Z,0.84
2022-12-03T00:21:27.918Z,0.82
2022-12-03T00:24:49.857Z,0.79
2022-12-03T00:28:13.133Z,0.82
2022-12-03T00:31:34.731Z,0.81
2022-12-03T00:34:56.552Z,0.84
2022-12-03T00:38:18.490Z,0.84
2022-12-03T00:41:40.046Z,0.83
2022-12-03T00:45:03.359Z,0.83
2022-12-03T00:48:25.126Z,0.81
2022-12-03T00:51:46.962Z,0.82
2022-12-03T00:55:09.718Z,0.82
2022-12-03T00:58:31.482Z,0.82
2022-12-03T01:01:54.940Z,0.81
2022-12-03T01:05:16.897Z,0.79
2022-12-03T01:08:38.561Z,0.81
2022-12-03T01:12:00.630Z,0.83
2022-12-03T01:15:22.116Z,0.83
2022-12-03T01:18:46.288Z,0.81
2022-12-03T01:22:09.149Z,0.84
2022-12-03T01:25:31.110Z,0.81
2022-12-03T01:28:52.946Z,0.81
2022-12-03T01:32:19.548Z,0.80
2022-12-03T01:35:43.154Z,0.79
2022-12-03T01:39:05.307Z,0.79
2022-12-03T01:42:30.261Z,0.79
2022-12-03T01:45:52.154Z,0.82
2022-12-03T01:49:16.878Z,0.81
2022-12-03T01:52:41.287Z,0.82
2022-12-03T01:56:03.350Z,0.83
2022-12-03T01:59:33.367Z,0.82
2022-12-03T02:02:57.091Z,0.82
2022-12-03T02:06:21.277Z,0.79
2022-12-03T02:09:44.394Z,0.81
2022-12-03T02:13:09.039Z,0.78
2022-12-03T02:16:31.546Z,0.74
2022-12-03T02:19:53.563Z,0.74
2022-12-03T02:23:24.032Z,0.76
2022-12-03T02:26:47.167Z,0.76
2022-12-03T02:30:10.968Z,0.77
2022-12-03T02:33:33.007Z,0.77
2022-12-03T02:36:55.067Z,0.78
2022-12-03T02:40:20.822Z,0.79
2022-12-03T02:43:43.898Z,0.80
2022-12-03T02:47:05.850Z,0.78
2022-12-03T02:50:30.441Z,0.77
2022-12-03T02:53:55.251Z,0.75
2022-12-03T02:57:17.239Z,0.72
2022-12-03T03:00:40.911Z,0.74
2022-12-03T03:04:03.323Z,0.75
2022-12-03T03:07:25.064Z,0.74
2022-12-03T03:10:48.754Z,0.71
2022-12-03T03:14:10.489Z,0.71
2022-12-03T03:17:33.596Z,0.68
2022-12-03T03:20:55.195Z,0.67
2022-12-03T03:24:17.059Z,0.69
2022-12-03T03:27:39.983Z,0.70
2022-12-03T03:31:04.704Z,0.68
2022-12-03T03:34:28.786Z,0.67
2022-12-03T03:37:50.518Z,0.68
2022-12-03T03:41:13.762Z,0.64
2022-12-03T03:44:35.771Z,0.62
2022-12-03T03:47:59.168Z,0.60
2022-12-03T03:51:23.074Z,0.58
2022-12-03T03:54:44.474Z,0.56
2022-12-03T03:58:06.540Z,0.55
2022-12-03T04:01:28.973Z,0.56
2022-12-03T04:04:51.394Z,0.61
2022-12-03T04:08:15.056Z,0.59
2022-12-03T04:11:53.864Z,0.56
2022-12-03T04:15:15.632Z,0.59
2022-12-03T04:18:46.116Z,0.61
2022-12-03T04:22:25.271Z,0.63
2022-12-03T04:26:05.964Z,0.65
2022-12-03T04:29:27.610Z,0.65
2022-12-03T04:33:06.903Z,0.65
2022-12-03T04:36:28.978Z,0.66
2022-12-03T04:39:50.710Z,0.65
2022-12-03T04:43:14.174Z,0.67
2022-12-03T04:46:35.935Z,0.68
2022-12-03T04:49:57.770Z,0.67
2022-12-03T04:53:19.822Z,0.65
2022-12-03T04:56:41.475Z,0.62
2022-12-03T05:00:05.187Z,0.62
2022-12-03T05:03:26.727Z,0.62
2022-12-03T05:06:48.514Z,0.64
2022-12-03T05:10:10.990Z,0.61
2022-12-03T05:13:32.571Z,0.60
2022-12-03T05:16:55.330Z,0.62
2022-12-03T05:20:34.773Z,0.62
2022-12-03T05:23:56.685Z,0.60
2022-12-03T05:27:23.352Z,0.60
2022-12-03T05:30:45.578Z,0.60
2022-12-03T05:34:08.517Z,0.60
2022-12-03T05:37:30.143Z,0.61
2022-12-03T05:40:51.983Z,0.62
2022-12-03T05:44:17.383Z,0.61
2022-12-03T05:47:42.080Z,0.60
2022-12-03T05:51:05.487Z,0.59
2022-12-03T05:54:27.176Z,0.60
2022-12-03T05:57:49.182Z,0.62
2022-12-03T06:01:10.781Z,0.63
2022-12-03T06:04:32.576Z,0.64
2022-12-03T06:07:55.784Z,0.65
2022-12-03T06:11:17.575Z,0.66
2022-12-03T06:14:39.484Z,0.64
2022-12-03T06:18:01.474Z,0.65
2022-12-03T06:21:23.406Z,0.64
2022-12-03T06:24:46.188Z,0.63
2022-12-03T06:28:07.744Z,0.60
2022-12-03T06:31:29.833Z,0.60
2022-12-03T06:34:51.946Z,0.57
2022-12-03T06:38:13.629Z,0.59
2022-12-03T06:41:36.893Z,0.58
2022-12-03T06:44:58.351Z,0.57
2022-12-03T06:48:20.158Z,0.60
2022-12-03T06:51:42.058Z,0.61
2022-12-03T06:55:04.015Z,0.57
2022-12-03T06:58:27.235Z,0.59
2022-12-03T07:01:49.349Z,0.59
2022-12-03T07:05:11.411Z,0.57
2022-12-03T07:08:33.405Z,0.58
2022-12-03T07:11:55.328Z,0.60
2022-12-03T07:15:18.719Z,0.60
2022-12-03T07:18:40.514Z,0.59
2022-12-03T07:22:02.394Z,0.58
2022-12-03T07:25:24.297Z,0.57
2022-12-03T07:28:46.697Z,0.58
2022-12-03T07:32:09.991Z,0.58
2022-12-03T07:35:31.607Z,0.54
2022-12-03T07:38:53.426Z,0.55
2022-12-03T07:42:15.077Z,0.54
2022-12-03T07:45:36.994Z,0.50
2022-12-03T07:49:00.133Z,0.48
2022-12-03T07:52:21.631Z,0.47
2022-12-03T07:55:43.562Z,0.46
2022-12-03T07:59:05.503Z,0.46
2022-12-03T08:02:27.635Z,0.45
2022-12-03T08:05:50.953Z,0.43
2022-12-03T08:09:15.982Z,0.45
2022-12-03T08:12:43.353Z,0.42
2022-12-03T08:16:15.946Z,0.41
2022-12-03T08:19:37.986Z,0.39
2022-12-03T08:23:04.851Z,0.39
2022-12-03T08:26:28.861Z,0.39
2022-12-03T08:29:51.065Z,0.38
2022-12-03T08:33:27.056Z,0.36
2022-12-03T08:36:51.919Z,0.36
2022-12-03T08:40:34.540Z,0.34
2022-12-03T08:43:56.522Z,0.33
2022-12-03T08:47:22.297Z,0.32
2022-12-03T08:50:44.283Z,0.34
2022-12-03T08:54:13.771Z,0.34
2022-12-03T08:57:37.370Z,0.34
2022-12-03T09:01:06.916Z,0.34
2022-12-03T09:04:32.147Z,0.33
2022-12-03T09:07:53.839Z,0.35
2022-12-03T09:11:15.542Z,0.36
2022-12-03T09:14:38.388Z,0.38
2022-12-03T09:18:00.207Z,0.39
2022-12-03T09:21:21.858Z,0.41
2022-12-03T09:24:43.936Z,0.42
2022-12-03T09:28:05.937Z,0.42
2022-12-03T09:31:29.056Z,0.42
2022-12-03T09:34:51.170Z,0.41
2022-12-03T09:38:13.053Z,0.42
2022-12-03T09:41:35.640Z,0.41
2022-12-03T09:44:57.546Z,0.42
2022-12-03T09:48:22.472Z,0.44
2022-12-03T09:51:45.516Z,0.48
2022-12-03T09:55:15.156Z,0.49
2022-12-03T09:58:37.295Z,0.49
2022-12-03T10:02:00.290Z,0.54
2022-12-03T10:05:24.579Z,0.53
2022-12-03T10:08:49.239Z,0.56
2022-12-03T10:12:14.383Z,0.60
2022-12-03T10:15:36.019Z,0.64
2022-12-03T10:19:00.697Z,0.66
2022-12-03T10:22:23.811Z,0.70
2022-12-03T10:25:52.580Z,0.69
2022-12-03T10:29:15.400Z,0.70
2022-12-03T10:32:42.531Z,0.70
2022-12-03T10:36:28.856Z,0.67
2022-12-03T10:39:57.652Z,0.69
2022-12-03T10:43:24.239Z,0.69
2022-12-03T10:46:47.106Z,0.67
2022-12-03T10:50:18.057Z,0.66
2022-12-03T10:53:42.275Z,0.67
2022-12-03T10:57:05.503Z,0.67
2022-12-03T11:00:27.217Z,0.69
2022-12-03T11:03:49.701Z,0.70
2022-12-03T11:07:16.253Z,0.70
2022-12-03T11:10:38.020Z,0.70
2022-12-03T11:14:02.650Z,0.71
2022-12-03T11:17:48.922Z,0.72
2022-12-03T11:21:12.420Z,0.74
2022-12-03T11:24:36.047Z,0.75
2022-12-03T11:28:37.611Z,0.75
2022-12-03T11:32:01.492Z,0.75
2022-12-03T11:35:28.888Z,0.76
2022-12-03T11:38:56.673Z,0.77
2022-12-03T11:42:30.491Z,0.76
2022-12-03T11:45:53.210Z,0.76
2022-12-03T11:49:34.449Z,0.74
2022-12-03T11:53:00.210Z,0.76
2022-12-03T11:56:25.610Z,0.74
2022-12-03T11:59:59.143Z,0.76
2022-12-03T12:03:29.262Z,0.78
2022-12-03T12:06:53.528Z,0.78
2022-12-03T12:10:16.128Z,0.79
2022-12-03T12:13:54.439Z,0.81
2022-12-03T12:17:31.841Z,0.82
2022-12-03T12:20:53.758Z,0.82
2022-12-03T12:24:46.840Z,0.82
2022-12-03T12:28:09.399Z,0.82
2022-12-03T12:31:31.485Z,0.82
2022-12-03T12:34:58.291Z,0.81
2022-12-03T12:38:21.817Z,0.82
2022-12-03T12:41:50.038Z,0.83
2022-12-03T12:45:17.579Z,0.84
2022-12-03T12:48:39.770Z,0.84
2022-12-03T12:52:01.653Z,0.84
2022-12-03T12:55:24.359Z,0.84
2022-12-03T12:58:47.762Z,0.84
2022-12-03T13:02:38.099Z,0.83
2022-12-03T13:06:00.121Z,0.85
2022-12-03T13:09:24.688Z,0.85
2022-12-03T13:12:46.434Z,0.84
2022-12-03T13:16:14.301Z,0.85
2022-12-03T13:19:46.237Z,0.86
2022-12-03T13:23:27.242Z,0.85
2022-12-03T13:26:48.862Z,0.84
2022-12-03T13:30:16.719Z,0.84
2022-12-03T13:33:40.251Z,0.85
2022-12-03T13:37:03.231Z,0.85
2022-12-03T13:40:27.777Z,0.85
2022-12-03T13:43:49.526Z,0.84
2022-12-03T13:47:15.583Z,0.85
2022-12-03T13:50:39.928Z,0.81
2022-12-03T13:54:01.840Z,0.79
2022-12-03T13:57:23.741Z,0.74
2022-12-03T14:00:45.542Z,0.78
2022-12-03T14:04:07.442Z,0.78
2022-12-03T14:07:30.417Z,0.79
2022-12-03T14:10:54.282Z,0.81
2022-12-03T14:14:20.122Z,0.81
2022-12-03T14:17:41.974Z,0.78
2022-12-03T14:21:04.036Z,0.78
2022-12-03T14:24:27.377Z,0.77
2022-12-03T14:27:48.976Z,0.77
2022-12-03T14:31:10.975Z,0.78
2022-12-03T14:34:32.360Z,0.76
2022-12-03T14:37:54.079Z,0.76
2022-12-03T14:41:34.680Z,0.74
2022-12-03T14:44:56.682Z,0.77
2022-12-03T14:48:18.476Z,0.77
2022-12-03T14:51:40.163Z,0.76
2022-12-03T14:55:01.962Z,0.75
2022-12-03T14:58:26.448Z,0.72
2022-12-03T15:01:48.281Z,0.76
2022-12-03T15:05:10.303Z,0.74
2022-12-03T15:08:31.926Z,0.76
2022-12-03T15:11:53.495Z,0.75
2022-12-03T15:15:18.235Z,0.74
2022-12-03T15:18:39.727Z,0.72
2022-12-03T15:22:01.538Z,0.74
2022-12-03T15:25:25.472Z,0.71
2022-12-03T15:28:48.490Z,0.71
2022-12-03T15:32:11.883Z,0.73
2022-12-03T15:35:33.923Z,0.72
2022-12-03T15:38:56.482Z,0.72
2022-12-03T15:42:18.181Z,0.72
2022-12-03T15:45:40.865Z,0.71
2022-12-03T15:49:04.199Z,0.74
2022-12-03T15:52:25.914Z,0.71
2022-12-03T15:55:47.866Z,0.72
2022-12-03T15:59:09.832Z,0.71
2022-12-03T16:02:34.007Z,0.72
2022-12-03T16:05:57.185Z,0.72
2022-12-03T16:09:23.741Z,0.74
2022-12-03T16:12:49.457Z,0.71
2022-12-03T16:16:11.073Z,0.69
2022-12-03T16:19:32.794Z,0.69
2022-12-03T16:23:12.158Z,0.71
2022-12-03T16:26:33.686Z,0.75
2022-12-03T16:29:56.752Z,0.72
2022-12-03T16:33:22.627Z,0.77
2022-12-03T16:36:47.248Z,0.75
2022-12-03T16:40:12.306Z,0.75
2022-12-03T16:43:38.444Z,0.73
2022-12-03T16:47:01.508Z,0.71
2022-12-03T16:50:29.357Z,0.70
2022-12-03T16:53:52.491Z,0.72
2022-12-03T16:57:16.355Z,0.71
2022-12-03T17:00:38.303Z,0.72
2022-12-03T17:04:00.151Z,0.74
2022-12-03T17:07:22.171Z,0.76
2022-12-03T17:10:44.161Z,0.76
2022-12-03T17:14:07.340Z,0.75
2022-12-03T17:17:29.152Z,0.76
2022-12-03T17:20:50.856Z,0.76
2022-12-03T17:24:12.746Z,0.77
2022-12-03T17:27:34.665Z,0.78
2022-12-03T17:30:58.037Z,0.77
2022-12-03T17:34:20.250Z,0.78
2022-12-03T17:37:42.214Z,0.78
2022-12-03T17:41:04.315Z,0.78
2022-12-03T17:44:26.018Z,0.77
2022-12-03T17:47:50.310Z,0.78
2022-12-03T17:51:12.133Z,0.81
2022-12-03T17:54:49.337Z,0.87
2022-12-03T17:58:15.346Z,0.89
2022-12-03T18:01:37.249Z,0.92
2022-12-03T18:05:00.615Z,0.98
2022-12-03T18:08:22.641Z,1.00
2022-12-03T18:11:44.554Z,1.03
2022-12-03T18:15:07.199Z,1.07
2022-12-03T18:18:28.899Z,1.09
2022-12-03T18:21:52.115Z,1.09
2022-12-03T18:25:14.594Z,1.08
2022-12-03T18:28:36.253Z,1.09
2022-12-03T18:31:58.245Z,1.08
2022-12-03T18:35:20.708Z,1.09
2022-12-03T18:38:43.667Z,1.06
2022-12-03T18:42:14.426Z,1.02
2022-12-03T18:45:36.401Z,1.06
2022-12-03T18:48:58.150Z,1.06
2022-12-03T18:52:22.549Z,1.05
2022-12-03T18:55:46.793Z,1.06
2022-12-03T18:59:09.151Z,1.06
2022-12-03T19:03:02.616Z,1.05
2022-12-03T19:06:18.759Z,1.03
2022-12-03T19:09:41.108Z,1.05
2022-12-03T19:13:04.764Z,1.05
2022-12-03T19:16:26.539Z,1.04
2022-12-03T19:19:48.189Z,1.04
2022-12-03T19:23:10.288Z,1.01
2022-12-03T19:26:32.141Z,1.00
2022-12-03T19:29:55.815Z,1.02
2022-12-03T19:33:18.300Z,1.01
2022-12-03T19:36:40.158Z,1.01
2022-12-03T19:40:01.700Z,1.03
2022-12-03T19:43:23.484Z,1.02
2022-12-03T19:46:46.934Z,1.01
2022-12-03T19:50:09.710Z,1.04
2022-12-03T19:53:32.331Z,1.03
2022-12-03T19:56:54.028Z,1.03
2022-12-03T20:00:17.043Z,1.05
2022-12-03T20:03:41.209Z,1.04
2022-12-03T20:07:02.993Z,1.04
2022-12-03T20:10:25.425Z,1.05
2022-12-03T20:13:48.411Z,1.06
2022-12-03T20:17:09.850Z,1.06
2022-12-03T20:20:33.078Z,1.07
2022-12-03T20:23:54.789Z,1.08
2022-12-03T20:27:22.476Z,1.09
2022-12-03T20:30:45.645Z,1.07
2022-12-03T20:34:07.404Z,1.07
2022-12-03T20:37:31.854Z,1.07
2022-12-03T20:40:53.579Z,1.08
2022-12-03T20:44:15.190Z,1.09
2022-12-03T20:47:37.154Z,1.07
2022-12-03T20:50:58.880Z,1.09
2022-12-03T20:54:22.069Z,1.11
2022-12-03T20:57:43.869Z,1.09
2022-12-03T21:01:15.435Z,1.09
2022-12-03T21:04:37.775Z,1.10
2022-12-03T21:07:59.868Z,1.12
2022-12-03T21:11:24.962Z,1.15
2022-12-03T21:14:47.067Z,1.18
2022-12-03T21:18:10.190Z,1.20
2022-12-03T21:21:31.584Z,1.22
2022-12-03T21:24:53.424Z,1.21
2022-12-03T21:28:16.628Z,1.23
2022-12-03T21:31:39.943Z,1.28
2022-12-03T21:35:01.783Z,1.29
2022-12-03T21:38:23.572Z,1.30
2022-12-03T21:42:19.147Z,1.34
2022-12-03T21:45:28.474Z,1.35
2022-12-03T21:48:50.286Z,1.36
2022-12-03T21:52:11.878Z,1.34
2022-12-03T21:55:33.567Z,1.35
2022-12-03T21:58:56.397Z,1.35
2022-12-03T22:02:19.650Z,1.36
2022-12-03T22:05:41.207Z,1.38
2022-12-03T22:09:03.131Z,1.39
2022-12-03T22:12:25.165Z,1.38
2022-12-03T22:15:46.891Z,1.34
2022-12-03T22:19:10.287Z,1.35
2022-12-03T22:22:32.581Z,1.33
2022-12-03T22:25:59.288Z,1.33
2022-12-03T22:29:20.921Z,1.33
2022-12-03T22:32:42.859Z,1.32
2022-12-03T22:36:09.716Z,1.32
2022-12-03T22:39:34.082Z,1.33
2022-12-03T22:42:55.852Z,1.32
2022-12-03T22:46:18.272Z,1.31
2022-12-03T22:49:40.136Z,1.30
2022-12-03T22:53:03.170Z,1.29
2022-12-03T22:56:25.750Z,1.30
2022-12-03T22:59:47.316Z,1.29
2022-12-03T23:03:09.693Z,1.30
2022-12-03T23:06:32.465Z,1.31
2022-12-03T23:09:56.145Z,1.31
2022-12-03T23:13:19.591Z,1.29
2022-12-03T23:16:42.191Z,1.31
2022-12-03T23:20:04.266Z,1.33
2022-12-03T23:23:28.162Z,1.30
2022-12-03T23:26:51.410Z,1.29
2022-12-03T23:30:15.570Z,1.31
2022-12-03T23:33:38.696Z,1.35
2022-12-03T23:37:00.478Z,1.36
2022-12-03T23:40:22.005Z,1.39
2022-12-03T23:43:45.274Z,1.41
2022-12-03T23:47:07.161Z,1.42
2022-12-03T23:50:29.790Z,1.44
2022-12-03T23:53:52.811Z,1.45
2022-12-03T23:57:15.944Z,1.47
